TimeCST,TemperatureF,Dew PointF,Humidity,Sea Level PressureIn,VisibilityMPH,Wind Direction,Wind SpeedMPH,Gust SpeedMPH,PrecipitationIn,Events,Conditions,WindDirDegrees,DateUTC
12:15 AM,30.2,26.6,86,30.19,10.0,NW,9.2,-,N/A,,Clear,310,2013-03-02 06:15:00
12:35 AM,32.0,26.6,80,30.19,10.0,NW,11.5,-,N/A,,Partly Cloudy,320,2013-03-02 06:35:00
1:55 AM,30.2,23.0,75,30.20,10.0,NNW,12.7,-,N/A,,Scattered Clouds,340,2013-03-02 07:55:00
2:15 AM,30.2,24.8,80,30.19,10.0,NNW,13.8,-,N/A,,Scattered Clouds,340,2013-03-02 08:15:00
2:35 AM,30.2,21.2,69,30.19,10.0,NNW,15.0,-,N/A,,Clear,340,2013-03-02 08:35:00
2:56 AM,28.4,21.2,74,30.19,10.0,NNW,13.8,-,N/A,,Clear,330,2013-03-02 08:56:00
3:15 AM,28.4,21.2,74,30.19,10.0,NNW,9.2,-,N/A,,Clear,340,2013-03-02 09:15:00
3:35 AM,28.4,21.2,74,30.19,10.0,NNW,10.4,-,N/A,,Clear,330,2013-03-02 09:35:00
3:55 AM,28.4,21.2,74,30.18,10.0,NNW,9.2,-,N/A,,Partly Cloudy,330,2013-03-02 09:55:00
4:15 AM,28.4,23.0,80,30.19,10.0,NNW,8.1,-,N/A,,Scattered Clouds,330,2013-03-02 10:15:00
4:35 AM,28.4,21.2,74,30.19,10.0,NNW,12.7,-,N/A,,Overcast,330,2013-03-02 10:35:00
4:55 AM,28.4,21.2,74,30.20,10.0,NW,12.7,-,N/A,,Overcast,320,2013-03-02 10:55:00
5:15 AM,28.4,21.2,74,30.20,10.0,NNW,11.5,-,N/A,,Overcast,330,2013-03-02 11:15:00
6:35 AM,28.4,21.2,74,30.22,10.0,NNW,10.4,-,N/A,,Overcast,330,2013-03-02 12:35:00
6:55 AM,28.4,21.2,74,30.23,10.0,NNW,13.8,18.4,N/A,,Overcast,330,2013-03-02 12:55:00
7:35 AM,28.4,21.2,74,30.24,10.0,NNW,17.3,-,N/A,,Mostly Cloudy,330,2013-03-02 13:35:00
7:55 AM,28.4,21.2,74,30.24,10.0,NW,16.1,-,N/A,,Partly Cloudy,320,2013-03-02 13:55:00
8:16 AM,30.2,21.2,69,30.25,10.0,NNW,19.6,-,N/A,,Clear,330,2013-03-02 14:16:00
9:15 AM,33.8,21.2,60,30.26,10.0,NNW,18.4,24.2,N/A,,Clear,330,2013-03-02 15:15:00
9:35 AM,33.8,21.2,60,30.26,10.0,NW,16.1,-,N/A,,Scattered Clouds,320,2013-03-02 15:35:00
9:55 AM,32.0,21.2,64,30.27,10.0,NW,15.0,-,N/A,,Overcast,310,2013-03-02 15:55:00
10:15 AM,32.0,19.4,60,30.27,10.0,NW,16.1,-,N/A,,Overcast,320,2013-03-02 16:15:00
10:35 AM,33.8,21.2,60,30.27,10.0,NNW,17.3,-,N/A,,Overcast,330,2013-03-02 16:35:00
10:55 AM,33.8,19.4,56,30.27,10.0,NNW,12.7,-,N/A,,Overcast,330,2013-03-02 16:55:00
11:15 AM,33.8,21.2,60,30.27,10.0,NW,16.1,20.7,N/A,,Overcast,320,2013-03-02 17:15:00
11:35 AM,33.8,21.2,60,30.27,10.0,NNW,15.0,-,N/A,,Overcast,330,2013-03-02 17:35:00
11:55 AM,33.8,21.2,60,30.27,10.0,NNW,17.3,-,N/A,,Overcast,330,2013-03-02 17:55:00
12:35 PM,33.8,19.4,56,30.26,10.0,NNW,16.1,-,N/A,,Overcast,340,2013-03-02 18:35:00
12:56 PM,33.8,19.4,56,30.25,10.0,NW,13.8,-,N/A,,Overcast,320,2013-03-02 18:56:00
1:16 PM,33.8,19.4,56,30.25,10.0,NNW,13.8,-,N/A,,Overcast,330,2013-03-02 19:16:00
1:35 PM,33.8,19.4,56,30.24,10.0,NNW,12.7,-,N/A,,Overcast,340,2013-03-02 19:35:00
1:55 PM,33.8,19.4,56,30.24,10.0,NW,13.8,-,N/A,,Overcast,310,2013-03-02 19:55:00
2:15 PM,33.8,19.4,56,30.24,10.0,NNW,15.0,-,N/A,,Overcast,340,2013-03-02 20:15:00
2:35 PM,33.8,19.4,56,30.24,10.0,NNW,13.8,-,N/A,,Overcast,340,2013-03-02 20:35:00
2:55 PM,33.8,17.6,52,30.24,10.0,NNW,15.0,18.4,N/A,,Overcast,330,2013-03-02 20:55:00
3:15 PM,33.8,19.4,56,30.24,10.0,North,10.4,-,N/A,,Overcast,360,2013-03-02 21:15:00
3:55 PM,33.8,19.4,56,30.23,10.0,NNW,10.4,-,N/A,,Overcast,330,2013-03-02 21:55:00
4:15 PM,33.8,19.4,56,30.24,10.0,NW,6.9,-,N/A,,Mostly Cloudy,320,2013-03-02 22:15:00
4:35 PM,35.6,19.4,52,30.23,10.0,NNW,4.6,-,N/A,,Mostly Cloudy,340,2013-03-02 22:35:00
4:55 PM,35.6,17.6,48,30.24,10.0,WNW,9.2,-,N/A,,Overcast,300,2013-03-02 22:55:00
5:55 PM,33.8,19.4,56,30.24,10.0,WNW,6.9,-,N/A,,Overcast,300,2013-03-02 23:55:00
6:35 PM,32.0,19.4,60,30.25,10.0,NW,9.2,-,N/A,,Partly Cloudy,310,2013-03-03 00:35:00
7:15 PM,28.4,19.4,69,30.26,10.0,NW,8.1,-,N/A,,Clear,310,2013-03-03 01:15:00
8:55 PM,26.6,21.2,80,30.26,10.0,NNW,4.6,-,N/A,,Clear,330,2013-03-03 02:55:00
9:55 PM,28.4,21.2,74,30.26,10.0,NNW,4.6,-,N/A,,Clear,330,2013-03-03 03:55:00
10:15 PM,26.6,19.4,74,30.26,10.0,NNW,4.6,-,N/A,,Clear,330,2013-03-03 04:15:00
10:35 PM,26.6,19.4,74,30.27,10.0,NW,5.8,-,N/A,,Clear,310,2013-03-03 04:35:00
10:55 PM,26.6,19.4,74,30.26,10.0,NW,3.5,-,N/A,,Clear,310,2013-03-03 04:55:00
11:15 PM,26.6,19.4,74,30.26,10.0,NW,4.6,-,N/A,,Clear,310,2013-03-03 05:15:00
11:35 PM,26.6,19.4,74,30.26,10.0,WNW,4.6,-,N/A,,Clear,290,2013-03-03 05:35:00
11:55 PM,26.6,19.4,74,30.26,10.0,WNW,4.6,-,N/A,,Clear,300,2013-03-03 05:55:00